Arcola, PA

8:10 PM EDT on June 02, 2015 (GMT -0400)
Collegeville | | Change Station
CLOSE
Current Station
Personal Weather Station
Location: Collegeville, PA
Elevation: 135 ft
Nearby Weather Stations

Elev 135 ft 40.18 °N, 75.45 °W | Updated 1 minute ago

Rain
Rain
55.3 °F
Feels Like 55.3 °F
N
0.0
Wind Variable Wind from WSW
Gusts 0.0 mph

Today
High -- | Low -- °F
--% Chance of Precip.
Yesterday
High -- | Low -- °F
Precip. -- in
5:34 AM 8:25 PM
Full, 100% visible
Pressure 30.15 in
Visibility 9.0 miles
Clouds Scattered Clouds 1000 ft
Overcast 2800 ft
Dew Point 55 °F
Humidity 97%
Rainfall 0.27 in
Snow Depth Not available.
UV 0 out of 12
Pollen .90 out of 12
Air Quality Not available.
Flu Activity Sporadic
METAR KPTW 022354Z AUTO 00000KT 9SM -RA SCT010 OVC028 12/12 A3015 RMK AO2 SLP208 P0004 60024 T01220122 10128 20117 53005 $

More Conditions Fewer Conditions

Pressure 30.15 in
Visibility 9.0 miles
Clouds Scattered Clouds 1000 ft
Overcast 2800 ft
Dew Point 55 °F
Humidity 97%
Rainfall 0.27 in
Snow Depth Not available.
UV 0 out of 12
Pollen .90 out of 12
Air Quality Not available.
Flu Activity Sporadic
METAR KPTW 022354Z AUTO 00000KT 9SM -RA SCT010 OVC028 12/12 A3015 RMK AO2 SLP208 P0004 60024 T01220122 10128 20117 53005 $

More Conditions Fewer Conditions

Nowcast | as of 8:02 PM EDT on June 2, 2015

Between 8 PM and 10 PM expect light rain to continue to fall. Additional amount of rain up to five hundreths of an inch. Temperatures around mid 50s.

×

10-Day Weather Forecast

×

Almanac

Astronomy

Jun. 02, 2015 Rise Set
Actual Time
Civil Twilight
Nautical Twilight
Astronomical Twilight
Moon
Length of Visible Light
Length of Day
Tomorrow will be .
, % of the Moon is Illuminated

Today's Extremes

State Highs State Lows

Community

WunderPhotos

Upload Photos

1,826,074 photos uploaded!

WunderBlogs® & News

Nearby

Air Quality

  Air Quality AQ Index Pollutant
Not available.

Snow Depth

Station Depth Elevation

Earthquake Activity

City Distance Mag. Time & Date
Minimum magnitude displayed is 2.5.

Coastal Water Temperatures

Place Temperature

Stations

Nearby Weather Stations

Station Location Temp. Windchill Dew Point Humidity Wind Precip. Elev Updated Type